createdAt,value
2019-06-10T00:00:04.814Z,1006.36
2019-06-10T00:00:43.984Z,1006.36
2019-06-10T00:01:26.664Z,1006.32
2019-06-10T00:02:07.249Z,1006.3
2019-06-10T00:02:47.626Z,1006.32
2019-06-10T00:03:28.093Z,1006.24
2019-06-10T00:04:12.146Z,1006.26
2019-06-10T00:04:50.796Z,1006.26
2019-06-10T00:05:30.476Z,1006.2
2019-06-10T00:06:11.493Z,1006.18
2019-06-10T00:06:51.037Z,1006.15
2019-06-10T00:07:31.617Z,1006.16
2019-06-10T00:08:12.273Z,1006.14
2019-06-10T00:08:52.159Z,1006.15
2019-06-10T00:09:32.607Z,1006.16
2019-06-10T00:10:31.056Z,1006.15
2019-06-10T00:11:11.601Z,1006.14
2019-06-10T00:11:51.409Z,1006.11
2019-06-10T00:12:31.372Z,1006.13
2019-06-10T00:13:11.707Z,1006.15
2019-06-10T00:13:51.495Z,1006.14
2019-06-10T00:14:32.014Z,1006.17
2019-06-10T00:15:52.936Z,1006.14
2019-06-10T00:16:33.548Z,1006.12
2019-06-10T00:17:13.911Z,1006.1
2019-06-10T00:18:13.574Z,1006.05
2019-06-10T00:18:41.719Z,1006.05
2019-06-10T00:19:15.371Z,1006.07
2019-06-10T00:24:32.854Z,1006.05
2019-06-10T00:25:22.520Z,1006.03
2019-06-10T00:26:17.445Z,1006.07
2019-06-10T00:28:15.097Z,1006.01
2019-06-10T00:28:56.098Z,1006
2019-06-10T00:29:37.180Z,1006.02
2019-06-10T00:30:17.637Z,1006.01
2019-06-10T00:31:00.835Z,1005.98
2019-06-10T00:31:38.878Z,1005.96
2019-06-10T00:32:21.449Z,1005.96
2019-06-10T00:33:00.560Z,1005.97
2019-06-10T00:35:34.653Z,1005.91
2019-06-10T00:36:22.108Z,1005.89
2019-06-10T00:37:14.790Z,1005.86
2019-06-10T00:39:35.550Z,1005.81
2019-06-10T00:40:26.851Z,1005.88
2019-06-10T00:41:17.453Z,1005.84
2019-06-10T00:42:10.470Z,1005.83
2019-06-10T00:43:02.545Z,1005.83
2019-06-10T00:43:54.592Z,1005.8
2019-06-10T00:49:03.958Z,1005.72
2019-06-10T00:49:40.907Z,1005.73
2019-06-10T00:50:21.681Z,1005.76
2019-06-10T00:51:02.267Z,1005.74
2019-06-10T00:51:41.540Z,1005.75
2019-06-10T00:52:21.871Z,1005.74
2019-06-10T00:53:02.898Z,1005.77
2019-06-10T00:53:42.748Z,1005.75
2019-06-10T00:54:25.175Z,1005.77
2019-06-10T00:55:06.431Z,1005.76
2019-06-10T00:55:46.097Z,1005.71
2019-06-10T00:56:26.562Z,1005.74
2019-06-10T00:57:07.374Z,1005.69
2019-06-10T00:58:31.774Z,1005.72
2019-06-10T00:59:12.739Z,1005.68
2019-06-10T00:59:50.825Z,1005.65
2019-06-10T01:00:31.737Z,1005.67
2019-06-10T01:01:14.407Z,1005.63
2019-06-10T01:01:52.028Z,1005.63
2019-06-10T01:02:32.541Z,1005.61
2019-06-10T01:03:15.059Z,1005.61
2019-06-10T01:03:53.474Z,1005.57
2019-06-10T01:04:33.945Z,1005.59
2019-06-10T01:05:15.222Z,1005.58
2019-06-10T01:05:54.900Z,1005.56
2019-06-10T01:06:35.343Z,1005.58
2019-06-10T01:07:15.814Z,1005.58
2019-06-10T01:07:56.301Z,1005.61
2019-06-10T01:08:36.788Z,1005.62
2019-06-10T01:09:17.256Z,1005.57
2019-06-10T01:09:57.765Z,1005.58
2019-06-10T01:10:38.194Z,1005.62
2019-06-10T01:11:23.525Z,1005.57
2019-06-10T01:12:01.157Z,1005.56
2019-06-10T01:12:40.666Z,1005.55
2019-06-10T01:13:20.753Z,1005.53
2019-06-10T01:14:01.419Z,1005.52
2019-06-10T01:14:41.152Z,1005.52
2019-06-10T01:16:03.298Z,1005.51
2019-06-10T01:16:42.402Z,1005.51
2019-06-10T01:17:22.846Z,1005.48
2019-06-10T01:18:03.496Z,1005.49
2019-06-10T01:18:43.801Z,1005.48
2019-06-10T01:19:24.284Z,1005.45
2019-06-10T01:20:05.793Z,1005.46
2019-06-10T01:20:45.192Z,1005.47
2019-06-10T01:21:25.641Z,1005.48
2019-06-10T01:22:06.119Z,1005.45
2019-06-10T01:23:27.046Z,1005.45
2019-06-10T01:24:07.525Z,1005.41
2019-06-10T01:24:48.007Z,1005.44
2019-06-10T01:25:30.964Z,1005.41
2019-06-10T01:26:12.449Z,1005.43
2019-06-10T01:26:50.533Z,1005.41
2019-06-10T01:27:31.481Z,1005.42
2019-06-10T01:28:13.216Z,1005.43
2019-06-10T01:28:51.574Z,1005.41
2019-06-10T01:29:31.475Z,1005.43
2019-06-10T01:30:18.543Z,1005.42
2019-06-10T01:30:52.259Z,1005.42
2019-06-10T01:31:32.738Z,1005.41
2019-06-10T01:32:14.881Z,1005.44
2019-06-10T01:32:53.759Z,1005.44
2019-06-10T01:33:34.182Z,1005.44
2019-06-10T01:34:15.121Z,1005.41
2019-06-10T01:34:55.105Z,1005.44
2019-06-10T01:35:35.587Z,1005.4
2019-06-10T01:36:16.579Z,1005.42
2019-06-10T01:36:56.529Z,1005.36
2019-06-10T01:37:36.949Z,1005.35
2019-06-10T01:38:18.352Z,1005.31
2019-06-10T01:38:57.942Z,1005.27
2019-06-10T01:39:38.372Z,1005.26
2019-06-10T01:41:01.419Z,1005.21
2019-06-10T01:41:40.903Z,1005.21
2019-06-10T01:42:21.572Z,1005.17
2019-06-10T01:43:01.111Z,1005.16
2019-06-10T01:43:41.187Z,1005.09
2019-06-10T01:44:22.941Z,1005.1
2019-06-10T01:45:03.393Z,1005.07
2019-06-10T01:45:43.844Z,1005.06
2019-06-10T01:46:24.283Z,1005.03
2019-06-10T01:47:04.765Z,1005.06
2019-06-10T01:48:38.034Z,1005.01
2019-06-10T01:49:06.950Z,1005.02
2019-06-10T01:49:46.619Z,1005.02
2019-06-10T01:50:27.099Z,1005
2019-06-10T01:51:07.588Z,1004.98
2019-06-10T01:51:48.032Z,1005
2019-06-10T01:52:28.545Z,1005.01
2019-06-10T01:53:09.914Z,1004.96
2019-06-10T01:53:51.199Z,1004.99
2019-06-10T01:54:31.610Z,1004.95
2019-06-10T01:55:12.584Z,1004.93
2019-06-10T01:55:51.934Z,1004.92
2019-06-10T01:56:31.537Z,1004.91
2019-06-10T01:57:13.743Z,1004.87
2019-06-10T01:57:52.248Z,1004.85
2019-06-10T01:58:32.717Z,1004.88
2019-06-10T01:59:14.123Z,1004.84
2019-06-10T01:59:53.660Z,1004.88
2019-06-10T02:00:34.122Z,1004.87
2019-06-10T02:01:17.336Z,1004.83
2019-06-10T02:01:55.102Z,1004.8
2019-06-10T02:02:35.568Z,1004.8
2019-06-10T02:03:18.083Z,1004.81
2019-06-10T02:03:56.422Z,1004.79
2019-06-10T02:04:36.953Z,1004.78
2019-06-10T02:05:57.821Z,1004.77
2019-06-10T02:06:40.494Z,1004.78
2019-06-10T02:07:20.363Z,1004.8
2019-06-10T02:08:00.568Z,1004.82
2019-06-10T02:08:41.781Z,1004.8
2019-06-10T02:09:22.977Z,1004.82
2019-06-10T02:10:03.499Z,1004.81
2019-06-10T02:10:42.809Z,1004.8
2019-06-10T02:11:23.585Z,1004.81
2019-06-10T02:12:03.781Z,1004.79
2019-06-10T02:12:44.268Z,1004.8
2019-06-10T02:13:24.715Z,1004.78
2019-06-10T02:14:05.143Z,1004.81
2019-06-10T02:14:45.656Z,1004.78
2019-06-10T02:15:26.255Z,1004.8
2019-06-10T02:16:06.690Z,1004.75
2019-06-10T02:16:47.175Z,1004.76
2019-06-10T02:17:27.675Z,1004.8
2019-06-10T02:18:10.691Z,1004.78
2019-06-10T02:18:57.569Z,1004.79
2019-06-10T02:19:31.064Z,1004.79
2019-06-10T02:20:10.668Z,1004.8
2019-06-10T02:20:51.392Z,1004.77
2019-06-10T02:21:31.162Z,1004.8
2019-06-10T02:22:13.534Z,1004.8
2019-06-10T02:23:32.284Z,1004.83
2019-06-10T02:24:14.407Z,1004.85
2019-06-10T02:24:53.168Z,1004.81
2019-06-10T02:25:33.674Z,1004.82
2019-06-10T02:26:16.781Z,1004.86
2019-06-10T02:26:56.056Z,1004.83
2019-06-10T02:27:38.165Z,1004.85
2019-06-10T02:28:19.103Z,1004.89
2019-06-10T02:29:00.660Z,1004.88
2019-06-10T02:29:41.191Z,1004.87
2019-06-10T02:31:02.972Z,1004.91
2019-06-10T02:31:43.090Z,1004.93
2019-06-10T02:32:30.929Z,1004.9
2019-06-10T02:33:02.580Z,1004.92
2019-06-10T02:33:42.441Z,1004.89
2019-06-10T02:34:26.979Z,1004.87
2019-06-10T02:35:10.075Z,1004.82
2019-06-10T02:35:48.720Z,1004.78
2019-06-10T02:36:31.003Z,1004.79
2019-06-10T02:37:05.087Z,1004.8
2019-06-10T02:38:33.637Z,1004.76
2019-06-10T02:39:06.215Z,1004.71
2019-06-10T02:39:46.664Z,1004.76
2019-06-10T02:40:31.961Z,1004.77
2019-06-10T02:41:07.604Z,1004.75
2019-06-10T02:41:48.078Z,1004.73
2019-06-10T02:42:30.310Z,1004.73
2019-06-10T02:43:09.034Z,1004.74
2019-06-10T02:43:49.476Z,1004.75
2019-06-10T02:44:34.154Z,1004.73
2019-06-10T02:46:54.697Z,1004.73
2019-06-10T02:47:46.021Z,1004.75
2019-06-10T02:48:39.475Z,1004.73
2019-06-10T02:51:05.665Z,1004.74
2019-06-10T02:53:13.396Z,1004.73
2019-06-10T02:53:53.761Z,1004.72
2019-06-10T02:54:35.731Z,1004.68
2019-06-10T02:55:13.879Z,1004.74
2019-06-10T02:55:53.956Z,1004.74
2019-06-10T02:56:36.253Z,1004.68
2019-06-10T02:57:16.531Z,1004.73
2019-06-10T02:58:38.683Z,1004.73
2019-06-10T02:59:16.103Z,1004.79
2019-06-10T02:59:56.146Z,1004.79
2019-06-10T03:00:43.322Z,1004.81
2019-06-10T03:01:19.203Z,1004.82
2019-06-10T03:01:57.608Z,1004.87
2019-06-10T03:02:38.097Z,1004.82
2019-06-10T03:03:25.799Z,1004.81
2019-06-10T03:03:59.047Z,1004.81
2019-06-10T03:04:39.537Z,1004.82
2019-06-10T03:05:24.945Z,1004.79
2019-06-10T03:06:05.690Z,1004.76
2019-06-10T03:06:44.680Z,1004.76
2019-06-10T03:07:26.668Z,1004.74
2019-06-10T03:08:03.825Z,1004.73
2019-06-10T03:08:43.587Z,1004.67
2019-06-10T03:09:27.291Z,1004.7
2019-06-10T03:10:04.590Z,1004.66
2019-06-10T03:10:44.541Z,1004.69
2019-06-10T03:11:27.830Z,1004.66
2019-06-10T03:12:05.151Z,1004.65
2019-06-10T03:12:45.515Z,1004.64
2019-06-10T03:13:25.993Z,1004.63
2019-06-10T03:14:06.478Z,1004.6
2019-06-10T03:14:46.958Z,1004.61
2019-06-10T03:16:07.895Z,1004.55
2019-06-10T03:16:48.353Z,1004.51
2019-06-10T03:17:28.805Z,1004.55
2019-06-10T03:18:09.285Z,1004.52
2019-06-10T03:18:49.770Z,1004.51
2019-06-10T03:19:43.854Z,1004.48
2019-06-10T03:20:12.271Z,1004.49
2019-06-10T03:20:52.839Z,1004.48
2019-06-10T03:21:32.286Z,1004.46
2019-06-10T03:22:13.071Z,1004.43
2019-06-10T03:22:52.663Z,1004.43
2019-06-10T03:23:33.333Z,1004.36
2019-06-10T03:24:14.815Z,1004.4
2019-06-10T03:24:54.580Z,1004.37
2019-06-10T03:25:35.104Z,1004.38
2019-06-10T03:26:15.593Z,1004.37
2019-06-10T03:26:56.105Z,1004.36
2019-06-10T03:27:36.592Z,1004.35
2019-06-10T03:28:17.401Z,1004.35
2019-06-10T03:28:57.591Z,1004.31
2019-06-10T03:29:38.109Z,1004.34
2019-06-10T03:30:25.997Z,1004.32
2019-06-10T03:30:59.306Z,1004.3
2019-06-10T03:31:42.926Z,1004.29
2019-06-10T03:32:22.777Z,1004.35
2019-06-10T03:33:46.248Z,1004.32
2019-06-10T03:34:28.105Z,1004.28
2019-06-10T03:35:05.300Z,1004.28
2019-06-10T03:35:42.438Z,1004.27
2019-06-10T03:36:24.560Z,1004.3
2019-06-10T03:37:03.332Z,1004.26
2019-06-10T03:37:43.778Z,1004.28
2019-06-10T03:38:26.936Z,1004.26
2019-06-10T03:39:04.808Z,1004.26
2019-06-10T03:39:45.362Z,1004.29
2019-06-10T03:41:06.699Z,1004.32
2019-06-10T03:41:47.151Z,1004.31
2019-06-10T03:42:28.148Z,1004.33
2019-06-10T03:43:08.195Z,1004.36
2019-06-10T03:43:48.802Z,1004.39
2019-06-10T03:44:29.237Z,1004.41
2019-06-10T03:45:09.822Z,1004.39
2019-06-10T03:45:50.301Z,1004.45
2019-06-10T03:46:32.801Z,1004.39
2019-06-10T03:47:12.116Z,1004.38
2019-06-10T03:47:52.697Z,1004.42
2019-06-10T03:48:33.100Z,1004.42
2019-06-10T03:49:13.584Z,1004.44
2019-06-10T03:49:56.160Z,1004.47
2019-06-10T03:50:34.528Z,1004.47
2019-06-10T03:51:15.034Z,1004.45
2019-06-10T03:51:55.560Z,1004.44
2019-06-10T03:52:36.011Z,1004.46
2019-06-10T03:53:17.212Z,1004.45
2019-06-10T03:53:57.182Z,1004.46
2019-06-10T03:54:37.603Z,1004.44
2019-06-10T03:55:19.289Z,1004.44
2019-06-10T03:55:59.010Z,1004.42
2019-06-10T03:56:39.840Z,1004.45
2019-06-10T03:57:23.387Z,1004.46
2019-06-10T03:58:02.196Z,1004.48
2019-06-10T03:58:42.975Z,1004.47
2019-06-10T03:59:24.503Z,1004.5
2019-06-10T04:00:10.311Z,1004.51
2019-06-10T04:00:43.201Z,1004.52
2019-06-10T04:01:24.952Z,1004.53
2019-06-10T04:02:04.045Z,1004.46
2019-06-10T04:02:44.645Z,1004.45
2019-06-10T04:03:27.665Z,1004.48
2019-06-10T04:04:05.587Z,1004.47
2019-06-10T04:04:46.255Z,1004.48
2019-06-10T04:06:07.235Z,1004.45
2019-06-10T04:06:47.905Z,1004.42
2019-06-10T04:07:31.031Z,1004.41
2019-06-10T04:08:09.085Z,1004.45
2019-06-10T04:08:52.081Z,1004.46
2019-06-10T04:09:30.184Z,1004.49
2019-06-10T04:10:12.534Z,1004.46
2019-06-10T04:10:52.039Z,1004.48
2019-06-10T04:11:35.392Z,1004.49
2019-06-10T04:12:13.304Z,1004.48
2019-06-10T04:12:53.865Z,1004.45
2019-06-10T04:13:34.508Z,1004.47
2019-06-10T04:14:14.965Z,1004.44
2019-06-10T04:14:55.418Z,1004.44
2019-06-10T04:15:35.879Z,1004.44
2019-06-10T04:16:17.374Z,1004.43
2019-06-10T04:16:56.825Z,1004.42
2019-06-10T04:17:37.300Z,1004.42
2019-06-10T04:18:17.941Z,1004.37
2019-06-10T04:18:58.321Z,1004.38
2019-06-10T04:19:38.804Z,1004.4
2019-06-10T04:20:19.737Z,1004.35
2019-06-10T04:21:02.016Z,1004.37
2019-06-10T04:21:40.260Z,1004.36
2019-06-10T04:22:22.640Z,1004.36
2019-06-10T04:23:02.752Z,1004.36
2019-06-10T04:23:42.313Z,1004.34
2019-06-10T04:24:22.742Z,1004.34
2019-06-10T04:25:03.104Z,1004.37
2019-06-10T04:25:43.145Z,1004.32
2019-06-10T04:26:25.085Z,1004.31
2019-06-10T04:27:04.093Z,1004.32
2019-06-10T04:27:44.573Z,1004.3
2019-06-10T04:28:27.012Z,1004.32
2019-06-10T05:07:39.210Z,1004.29
2019-06-10T05:08:29.646Z,1004.26
2019-06-10T05:10:37.461Z,1004.26
2019-06-10T05:11:30.149Z,1004.28
2019-06-10T05:15:31.261Z,1004.29
2019-06-10T05:16:12.472Z,1004.22
2019-06-10T05:16:50.750Z,1004.21
2019-06-10T05:17:34.067Z,1004.25
2019-06-10T05:18:13.093Z,1004.28
2019-06-10T05:18:54.705Z,1004.26
2019-06-10T05:19:33.696Z,1004.27
2019-06-10T05:20:13.073Z,1004.31
2019-06-10T05:20:58.356Z,1004.31
2019-06-10T05:21:34.015Z,1004.27
2019-06-10T05:22:14.481Z,1004.27
2019-06-10T05:22:54.921Z,1004.24
2019-06-10T05:23:35.392Z,1004.29
2019-06-10T05:24:15.883Z,1004.22
2019-06-10T05:24:56.362Z,1004.24
2019-06-10T05:25:36.845Z,1004.25
2019-06-10T05:26:17.323Z,1004.24
2019-06-10T05:26:57.804Z,1004.26
2019-06-10T05:27:38.261Z,1004.28
2019-06-10T05:28:19.888Z,1004.29
2019-06-10T05:28:59.224Z,1004.28
2019-06-10T05:29:42.078Z,1004.34
2019-06-10T05:30:20.150Z,1004.37
2019-06-10T05:31:02.740Z,1004.35
2019-06-10T05:31:43.472Z,1004.35
2019-06-10T05:32:23.142Z,1004.34
2019-06-10T05:33:02.947Z,1004.32
2019-06-10T05:33:42.856Z,1004.35
2019-06-10T05:34:25.509Z,1004.33
2019-06-10T05:35:03.731Z,1004.33
2019-06-10T05:35:44.118Z,1004.33
2019-06-10T05:36:27.459Z,1004.3
2019-06-10T05:37:05.109Z,1004.33
2019-06-10T05:37:45.665Z,1004.31
2019-06-10T05:38:27.463Z,1004.32
2019-06-10T05:39:06.687Z,1004.33
2019-06-10T05:39:47.887Z,1004.32
2019-06-10T05:40:29.349Z,1004.3
2019-06-10T05:41:08.968Z,1004.3
2019-06-10T05:41:50.761Z,1004.28
2019-06-10T05:42:33.129Z,1004.31
2019-06-10T05:43:12.891Z,1004.32
2019-06-10T05:43:52.240Z,1004.34
2019-06-10T05:44:34.378Z,1004.33
2019-06-10T05:45:53.357Z,1004.37
2019-06-10T05:46:34.987Z,1004.33
2019-06-10T05:47:14.466Z,1004.36
2019-06-10T05:47:54.916Z,1004.38
2019-06-10T05:48:35.962Z,1004.36
2019-06-10T05:49:16.447Z,1004.34
2019-06-10T05:49:56.959Z,1004.36
2019-06-10T05:50:37.445Z,1004.37
2019-06-10T05:51:17.911Z,1004.36
2019-06-10T05:51:58.417Z,1004.35
2019-06-10T05:53:19.350Z,1004.35
2019-06-10T05:54:02.026Z,1004.3
2019-06-10T05:54:40.314Z,1004.27
2019-06-10T05:55:22.775Z,1004.27
2019-06-10T05:56:02.167Z,1004.23
2019-06-10T05:56:43.199Z,1004.21
2019-06-10T05:57:23.946Z,1004.24
2019-06-10T05:58:02.786Z,1004.21
2019-06-10T05:58:43.739Z,1004.17
2019-06-10T05:59:24.599Z,1004.14
2019-06-10T06:00:10.966Z,1004.15
2019-06-10T06:00:45.222Z,1004.16
2019-06-10T06:01:25.738Z,1004.14
2019-06-10T06:02:06.266Z,1004.17
2019-06-10T06:02:46.850Z,1004.17
2019-06-10T06:03:27.777Z,1004.17
2019-06-10T06:04:07.866Z,1004.18
2019-06-10T06:04:48.363Z,1004.18
2019-06-10T06:05:29.903Z,1004.17
2019-06-10T06:06:09.321Z,1004.26
2019-06-10T06:06:49.823Z,1004.23
2019-06-10T06:07:31.668Z,1004.21
2019-06-10T06:08:12.525Z,1004.21
2019-06-10T06:08:53.321Z,1004.28
2019-06-10T06:09:33.809Z,1004.24
2019-06-10T06:10:15.971Z,1004.22
2019-06-10T06:10:56.452Z,1004.23
2019-06-10T06:11:37.753Z,1004.19
2019-06-10T06:12:18.246Z,1004.19
2019-06-10T06:12:57.974Z,1004.19
2019-06-10T06:13:38.439Z,1004.2
2019-06-10T06:14:19.053Z,1004.2
2019-06-10T06:15:02.313Z,1004.21
2019-06-10T06:15:42.369Z,1004.2
2019-06-10T06:16:22.810Z,1004.18
2019-06-10T06:17:02.188Z,1004.19
2019-06-10T06:17:43.134Z,1004.21
2019-06-10T06:18:22.542Z,1004.16
2019-06-10T06:19:03.312Z,1004.24
2019-06-10T06:19:44.405Z,1004.21
2019-06-10T06:20:25.513Z,1004.28
2019-06-10T06:21:20.446Z,1004.22
2019-06-10T06:21:48.085Z,1004.25
2019-06-10T06:22:29.483Z,1004.23
2019-06-10T06:23:11.792Z,1004.19
2019-06-10T06:23:49.860Z,1004.26
2019-06-10T06:24:42.743Z,1004.2
2019-06-10T06:26:04.539Z,1004.32
2019-06-10T06:29:43.102Z,1004.25
2019-06-10T06:30:19.654Z,1004.24
2019-06-10T06:31:00.100Z,1004.28
2019-06-10T06:31:42.828Z,1004.3
2019-06-10T06:32:23.404Z,1004.29
2019-06-10T06:33:02.890Z,1004.28
2019-06-10T06:33:43.205Z,1004.29
2019-06-10T06:34:22.943Z,1004.27
2019-06-10T06:35:03.441Z,1004.28
2019-06-10T06:35:46.453Z,1004.29
2019-06-10T06:36:26.607Z,1004.25
2019-06-10T06:37:06.987Z,1004.27
2019-06-10T06:38:36.616Z,1004.22
2019-06-10T06:39:15.273Z,1004.19
2019-06-10T06:39:55.990Z,1004.2
2019-06-10T06:40:37.619Z,1004.18
2019-06-10T06:41:17.845Z,1004.18
2019-06-10T06:41:59.132Z,1004.18
2019-06-10T06:42:43.261Z,1004.18
2019-06-10T06:43:22.179Z,1004.19
2019-06-10T06:44:02.272Z,1004.18
2019-06-10T06:44:43.274Z,1004.2
2019-06-10T06:45:22.832Z,1004.2
2019-06-10T06:46:19.413Z,1004.18
2019-06-10T06:47:02.660Z,1004.15
2019-06-10T06:47:43.650Z,1004.19
2019-06-10T06:48:40.895Z,1004.19
2019-06-10T06:49:22.942Z,1004.15
2019-06-10T06:50:02.677Z,1004.12
2019-06-10T06:51:00.082Z,1004.12
2019-06-10T06:51:37.760Z,1004.14
2019-06-10T06:52:07.227Z,1004.15
2019-06-10T06:53:39.347Z,1004.17
2019-06-10T06:54:12.514Z,1004.16
2019-06-10T06:54:53.173Z,1004.14
2019-06-10T06:55:35.203Z,1004.14
2019-06-10T06:56:14.283Z,1004.15
2019-06-10T06:56:55.442Z,1004.12
2019-06-10T06:57:38.401Z,1004.12
2019-06-10T06:58:19.013Z,1004.14
2019-06-10T06:59:02.561Z,1004.1
2019-06-10T06:59:44.060Z,1004.11
2019-06-10T07:00:42.440Z,1004.1
2019-06-10T07:01:10.433Z,1004.13
2019-06-10T07:01:46.142Z,1004.14
2019-06-10T07:02:26.940Z,1004.14
2019-06-10T07:03:07.461Z,1004.15
2019-06-10T07:03:48.118Z,1004.17
2019-06-10T07:04:29.638Z,1004.15
2019-06-10T07:05:09.077Z,1004.15
2019-06-10T07:05:50.017Z,1004.18
2019-06-10T07:06:32.846Z,1004.16
2019-06-10T07:10:39.211Z,1004.11
2019-06-10T07:16:13.921Z,1004.19
2019-06-10T07:22:19.558Z,1004.18
2019-06-10T07:24:23.254Z,1004.19
2019-06-10T07:25:06.440Z,1004.15
2019-06-10T07:25:47.079Z,1004.12
2019-06-10T07:26:25.450Z,1004.16
2019-06-10T07:27:06.075Z,1004.13
2019-06-10T07:27:47.067Z,1004.12
2019-06-10T07:28:32.845Z,1004.11
2019-06-10T07:29:13.160Z,1004.08
2019-06-10T07:29:52.921Z,1004.02
2019-06-10T07:30:35.747Z,1004.01
2019-06-10T07:31:22.973Z,1004.01
2019-06-10T07:31:53.799Z,1003.99
2019-06-10T07:32:37.283Z,1003.99
2019-06-10T07:33:18.730Z,1004.01
2019-06-10T07:33:59.262Z,1003.98
2019-06-10T07:34:44.968Z,1004.03
2019-06-10T07:36:08.106Z,1004.07
2019-06-10T07:36:49.037Z,1004.08
2019-06-10T07:37:29.641Z,1004.11
2019-06-10T07:38:12.194Z,1004.11
2019-06-10T07:38:53.786Z,1004.14
2019-06-10T07:39:35.180Z,1004.16
2019-06-10T07:40:17.906Z,1004.17
2019-06-10T07:40:58.503Z,1004.15
2019-06-10T07:41:45.064Z,1004.17
2019-06-10T07:42:22.810Z,1004.17
2019-06-10T07:43:05.522Z,1004.17
2019-06-10T07:43:49.373Z,1004.19
2019-06-10T07:44:26.879Z,1004.17
2019-06-10T07:45:07.561Z,1004.13
2019-06-10T07:45:53.335Z,1004.19
2019-06-10T07:46:33.442Z,1004.16
2019-06-10T07:47:15.265Z,1004.18
2019-06-10T07:48:02.682Z,1004.15
2019-06-10T07:48:42.216Z,1004.16
2019-06-10T07:49:23.769Z,1004.13
2019-06-10T07:50:03.930Z,1004.14
2019-06-10T08:05:03.622Z,1003.96
2019-06-10T08:05:44.315Z,1003.97
2019-06-10T08:06:23.034Z,1003.93
2019-06-10T08:07:03.373Z,1003.96
2019-06-10T08:07:45.131Z,1003.99
2019-06-10T08:08:25.468Z,1003.97
2019-06-10T08:09:06.287Z,1003.95
2019-06-10T08:09:47.436Z,1003.95
2019-06-10T08:11:46.460Z,1003.87
2019-06-10T08:12:25.433Z,1003.87
2019-06-10T08:23:55.313Z,1003.77
2019-06-10T08:27:53.100Z,1003.68
2019-06-10T08:28:33.156Z,1003.64
2019-06-10T08:29:15.735Z,1003.64
2019-06-10T08:30:13.964Z,1003.64
2019-06-10T08:37:19.389Z,1003.68
2019-06-10T08:38:12.364Z,1003.73
2019-06-10T08:39:03.399Z,1003.72
2019-06-10T08:43:22.569Z,1003.67
2019-06-10T09:15:04.662Z,1003.31
2019-06-10T09:17:04.430Z,1003.26
2019-06-10T09:47:10.102Z,1003.1
2019-06-10T09:47:57.998Z,1003.09
2019-06-10T09:48:33.280Z,1003.07
2019-06-10T09:49:12.682Z,1003.08
2019-06-10T09:49:55.455Z,1003.06
2019-06-10T09:50:33.531Z,1003.06
2019-06-10T09:51:15.526Z,1003.05
2019-06-10T09:54:47.862Z,1003.02
2019-06-10T09:55:24.319Z,1003.01
2019-06-10T09:56:07.007Z,1003.02
2019-06-10T09:58:35.649Z,1003.08
2019-06-10T09:59:14.128Z,1003.06
2019-06-10T10:02:58.765Z,1003.07
2019-06-10T10:03:53.543Z,1003.07
2019-06-10T10:14:26.313Z,1002.79
2019-06-10T11:07:33.931Z,1002.14
2019-06-10T11:18:34.114Z,1001.97
2019-06-10T11:19:18.267Z,1001.96
2019-06-10T11:19:59.614Z,1001.99
2019-06-10T11:20:40.310Z,1001.96
2019-06-10T11:21:23.206Z,1001.94
2019-06-10T11:22:03.938Z,1001.93
2019-06-10T11:22:45.792Z,1001.94
2019-06-10T11:23:25.400Z,1001.96
2019-06-10T11:24:47.997Z,1001.97
2019-06-10T11:25:27.237Z,1001.95
2019-06-10T11:26:07.766Z,1001.92
2019-06-10T11:26:48.480Z,1001.98
2019-06-10T11:27:33.119Z,1001.95
2019-06-10T11:28:11.998Z,1001.93
2019-06-10T11:28:55.595Z,1001.91
2019-06-10T11:29:33.825Z,1001.92
2019-06-10T11:30:15.321Z,1001.9
2019-06-10T11:32:34.349Z,1001.94
2019-06-10T11:37:42.160Z,1001.93
2019-06-10T11:38:32.585Z,1001.98
2019-06-10T11:39:15.874Z,1001.89
2019-06-10T11:39:56.499Z,1001.88
2019-06-10T11:40:36.586Z,1001.93
2019-06-10T11:41:17.815Z,1001.91
2019-06-10T11:41:58.620Z,1001.93
2019-06-10T11:42:43.468Z,1001.9
2019-06-10T11:43:22.583Z,1001.9
2019-06-10T11:44:05.187Z,1001.88
2019-06-10T11:44:46.406Z,1001.86
2019-06-10T11:45:32.672Z,1001.81
2019-06-10T11:46:14.195Z,1001.88
2019-06-10T11:46:59.714Z,1001.84
2019-06-10T11:49:37.109Z,1001.79
2019-06-10T11:50:33.249Z,1001.77
2019-06-10T11:51:14.293Z,1001.75
2019-06-10T12:11:23.091Z,1001.52
2019-06-10T12:12:02.835Z,1001.52
2019-06-10T12:12:43.458Z,1001.56
2019-06-10T12:13:28.006Z,1001.51
2019-06-10T12:14:08.545Z,1001.47
2019-06-10T12:14:49.339Z,1001.5
2019-06-10T12:15:40.825Z,1001.51
2019-06-10T12:18:13.111Z,1001.55
2019-06-10T12:18:54.113Z,1001.57
2019-06-10T12:19:34.051Z,1001.56
2019-06-10T12:20:15.299Z,1001.54
2019-06-10T12:20:59.250Z,1001.53
2019-06-10T12:21:37.277Z,1001.51
2019-06-10T12:22:18.041Z,1001.43
2019-06-10T12:23:00.169Z,1001.47
2019-06-10T12:23:39.097Z,1001.49
2019-06-10T12:24:19.860Z,1001.48
2019-06-10T12:25:24.778Z,1001.55
2019-06-10T12:25:43.129Z,1001.5
2019-06-10T12:26:23.582Z,1001.51
2019-06-10T12:27:05.316Z,1001.47
2019-06-10T12:27:46.344Z,1001.41
2019-06-10T12:28:27.016Z,1001.44
2019-06-10T12:29:07.700Z,1001.42
2019-06-10T12:29:47.999Z,1001.43
2019-06-10T12:30:28.553Z,1001.37
2019-06-10T12:31:13.021Z,1001.41
2019-06-10T12:31:51.204Z,1001.42
2019-06-10T12:32:33.099Z,1001.43
2019-06-10T12:33:19.825Z,1001.4
2019-06-10T12:33:55.879Z,1001.38
2019-06-10T12:34:34.099Z,1001.38
2019-06-10T12:35:58.459Z,1001.39
2019-06-10T12:36:36.337Z,1001.35
2019-06-10T12:37:16.901Z,1001.4
2019-06-10T12:37:59.744Z,1001.34
2019-06-10T12:38:38.010Z,1001.34
2019-06-10T12:39:18.767Z,1001.33
2019-06-10T12:40:02.056Z,1001.3
2019-06-10T12:40:42.792Z,1001.3
2019-06-10T12:41:23.171Z,1001.3
2019-06-10T12:42:06.395Z,1001.3
2019-06-10T12:42:45.010Z,1001.28
2019-06-10T12:43:25.569Z,1001.27
2019-06-10T12:44:06.285Z,1001.26
2019-06-10T12:44:46.732Z,1001.25
2019-06-10T12:45:27.343Z,1001.2
2019-06-10T12:46:08.753Z,1001.23
2019-06-10T12:46:49.322Z,1001.21
2019-06-10T12:47:29.877Z,1001.19
2019-06-10T12:48:10.395Z,1001.2
2019-06-10T12:48:53.894Z,1001.19
2019-06-10T12:50:32.407Z,1001.12
2019-06-10T12:51:26.591Z,1001.12
2019-06-10T12:52:08.709Z,1001.11
2019-06-10T12:52:49.220Z,1001.09
2019-06-10T12:53:32.381Z,1001.12
2019-06-10T12:54:12.897Z,1001.11
2019-06-10T12:54:50.996Z,1001.1
2019-06-10T12:55:39.092Z,1001.13
2019-06-10T12:57:46.191Z,1001.16
2019-06-10T12:58:26.579Z,1001.14
2019-06-10T12:59:09.912Z,1001.15
2019-06-10T12:59:48.653Z,1001.11
2019-06-10T13:00:33.174Z,1001.11
2019-06-10T13:01:11.550Z,1001.07
2019-06-10T13:01:53.102Z,1001.09
2019-06-10T13:02:34.558Z,1001.03
2019-06-10T13:03:12.924Z,1001.1
2019-06-10T13:03:53.716Z,1001.09
2019-06-10T13:04:33.963Z,1001.08
2019-06-10T13:05:14.441Z,1001.11
2019-06-10T13:05:55.837Z,1001.01
2019-06-10T13:06:35.619Z,1001.04
2019-06-10T13:07:16.109Z,1001
2019-06-10T13:07:57.517Z,1001.02
2019-06-10T13:08:37.247Z,1000.99
2019-06-10T13:09:20.016Z,1001.02
2019-06-10T13:10:01.647Z,1000.93
2019-06-10T13:10:42.897Z,1000.94
2019-06-10T13:11:23.331Z,1000.93
2019-06-10T13:12:08.221Z,1000.89
2019-06-10T13:12:49.007Z,1000.92
2019-06-10T13:13:32.819Z,1000.93
2019-06-10T13:14:12.827Z,1000.89
2019-06-10T13:14:52.132Z,1000.84
2019-06-10T13:15:32.816Z,1000.87
2019-06-10T13:16:13.957Z,1000.82
2019-06-10T13:16:53.849Z,1000.8
2019-06-10T13:17:34.454Z,1000.82
2019-06-10T13:18:19.120Z,1000.82
2019-06-10T13:18:55.809Z,1000.81
2019-06-10T13:19:36.262Z,1000.84
2019-06-10T13:20:17.071Z,1000.85
2019-06-10T13:21:38.563Z,1000.81
2019-06-10T13:22:22.958Z,1000.8
2019-06-10T13:23:06.840Z,1000.84
2019-06-10T13:23:43.438Z,1000.8
2019-06-10T13:24:25.685Z,1000.76
2019-06-10T13:25:06.881Z,1000.74
2019-06-10T13:25:53.635Z,1000.72
2019-06-10T13:26:27.152Z,1000.72
2019-06-10T13:27:08.278Z,1000.75
2019-06-10T13:27:48.137Z,1000.72
2019-06-10T13:28:28.538Z,1000.68
2019-06-10T13:29:10.262Z,1000.67